Terminal Aerodrome Forecast
Issued by NWS

Home | Current Version | Previous Version | Text Only | Print | Product List | Glossary On
Versions: 1 2 3 4 5 6 7 8 9 10 11 12 13 14 15 16 17 18 19 20 21 22
000
FTUS42 KMLB 291120
TAFLEE
TAF
KLEE 291120Z 2912/3012 08003KT P6SM FEW010 SCT250
     FM291500 12006KT P6SM SCT030 SCT250
     FM292000 10008KT P6SM VCTS SCT035CB SCT120 BKN250
     FM300100 09006KT P6SM SCT035 SCT120 BKN250
     FM300500 11003KT P6SM FEW030 BKN250=

USA.gov is the U.S. government's official web portal to all federal, state and local government web resources and services.